createdAt,value
2019-01-18T00:02:03.191Z,26.5
2019-01-18T00:12:02.394Z,26.5
2019-01-18T01:11:58.343Z,26.6
2019-01-18T01:21:57.545Z,26.7
2019-01-18T01:31:56.759Z,26.7
2019-01-18T01:41:55.953Z,26.6
2019-01-18T01:51:55.154Z,26.6
2019-01-18T02:01:54.356Z,26.6
2019-01-18T02:11:53.560Z,26.6
2019-01-18T02:21:52.767Z,26.6
2019-01-18T02:31:51.975Z,26.7
2019-01-18T02:41:51.169Z,26.7
2019-01-18T02:51:50.372Z,26.7
2019-01-18T03:01:49.578Z,25.7
2019-01-18T03:11:48.805Z,25.8
2019-01-18T03:21:48.007Z,25.8
2019-01-18T03:31:47.216Z,25.8
2019-01-18T03:41:46.412Z,25.8
2019-01-18T03:51:45.614Z,25.8
2019-01-18T04:01:44.819Z,25.8
2019-01-18T04:11:44.021Z,25.9
2019-01-18T04:21:43.219Z,25.9
2019-01-18T04:31:42.422Z,25.9
2019-01-18T04:41:41.620Z,25.9
2019-01-18T04:51:40.832Z,25.9
2019-01-18T05:01:40.028Z,25.9
2019-01-18T05:11:39.228Z,25.9
2019-01-18T05:21:38.435Z,25.9
2019-01-18T05:31:37.628Z,24.6
2019-01-18T05:41:36.830Z,22.8
2019-01-18T05:51:36.095Z,18.6
2019-01-18T06:01:35.248Z,18.3
2019-01-18T06:11:34.448Z,18.3
2019-01-18T06:21:33.659Z,18.2
2019-01-18T06:31:32.867Z,18.1
2019-01-18T06:41:32.071Z,18.1
2019-01-18T06:51:31.278Z,18.2
2019-01-18T07:01:30.488Z,18.3
2019-01-18T07:11:29.692Z,18.4
2019-01-18T07:21:28.906Z,18.8
2019-01-18T07:31:53.780Z,19.4
2019-01-18T07:41:27.313Z,20
2019-01-18T07:51:26.517Z,20.6
2019-01-18T08:01:25.729Z,20.9
2019-01-18T08:11:24.941Z,21.4
2019-01-18T08:21:24.146Z,21.9
2019-01-18T08:31:28.779Z,22.5
2019-01-18T08:41:22.606Z,23.2
2019-01-18T08:51:21.763Z,23.8
2019-01-18T09:01:20.965Z,24.5
2019-01-18T09:11:20.215Z,25.1
2019-01-18T09:21:19.377Z,25.6
2019-01-18T09:31:18.585Z,25.9
2019-01-18T09:41:17.779Z,26.3
2019-01-18T09:51:16.986Z,26.2
2019-01-18T10:01:16.189Z,26.4
2019-01-18T10:11:15.413Z,26.6
2019-01-18T10:21:14.611Z,26.9
2019-01-18T10:31:13.821Z,27.1
2019-01-18T10:41:13.025Z,27.3
2019-01-18T10:51:12.234Z,27.7
2019-01-18T11:01:11.469Z,27.9
2019-01-18T11:11:10.703Z,28.3
2019-01-18T11:21:09.863Z,28.6
2019-01-18T11:31:09.072Z,28.5
2019-01-18T11:41:08.283Z,28.8
2019-01-18T11:51:07.491Z,29
2019-01-18T12:01:06.750Z,29.2
2019-01-18T12:11:05.912Z,29.3
2019-01-18T12:21:05.123Z,29.6
2019-01-18T12:31:04.330Z,29.8
2019-01-18T12:41:03.545Z,30.1
2019-01-18T12:51:03.471Z,30.3
2019-01-18T13:01:01.971Z,30.5
2019-01-18T13:11:01.178Z,30.7
2019-01-18T13:21:00.390Z,30.9
2019-01-18T13:30:59.599Z,31.1
2019-01-18T13:40:58.807Z,31.3
2019-01-18T13:50:58.019Z,31.4
2019-01-18T14:00:57.231Z,31.5
2019-01-18T14:10:56.429Z,31.4
2019-01-18T14:20:55.641Z,31.4
2019-01-18T14:30:54.863Z,31.4
2019-01-18T14:40:54.066Z,31.4
2019-01-18T14:50:53.277Z,31.4
2019-01-18T15:00:52.487Z,31.3
2019-01-18T15:10:51.704Z,31.3
2019-01-18T15:20:50.903Z,30.9
2019-01-18T15:30:50.116Z,30.6
2019-01-18T15:40:49.329Z,29.8
2019-01-18T15:50:48.599Z,29.2
2019-01-18T16:00:47.760Z,27.7
2019-01-18T16:10:46.973Z,27.3
2019-01-18T16:20:46.186Z,27.1
2019-01-18T16:30:45.404Z,26.4
2019-01-18T16:40:44.614Z,25.1
2019-01-18T16:50:43.832Z,22.6
2019-01-18T17:00:43.049Z,21.6
2019-01-18T17:10:42.263Z,21.4
2019-01-18T17:20:41.479Z,20.8
2019-01-18T17:30:40.696Z,20.1
2019-01-18T17:40:39.914Z,20.4
2019-01-18T17:50:39.128Z,19.8
2019-01-18T18:00:38.394Z,19.6
2019-01-18T18:20:36.806Z,18.8
2019-01-18T18:30:35.993Z,18.2
2019-01-18T18:40:35.243Z,18.3
2019-01-18T18:50:34.451Z,17.9
2019-01-18T19:00:33.645Z,18.1
2019-01-18T19:10:32.870Z,16.9
2019-01-18T19:20:32.103Z,16.8
2019-01-18T19:30:31.292Z,16.8
2019-01-18T19:40:30.515Z,16.6
2019-01-18T19:50:29.724Z,16.5
2019-01-18T20:00:28.937Z,15.9
2019-01-18T20:10:28.161Z,15.7
2019-01-18T20:20:27.377Z,15.7
2019-01-18T20:30:26.601Z,15.6
2019-01-18T20:40:25.815Z,15.5
2019-01-18T20:50:25.034Z,15.5
2019-01-18T21:00:24.252Z,15.4
2019-01-18T21:10:23.489Z,15.4
2019-01-18T21:20:22.681Z,15.3
2019-01-18T21:30:21.897Z,15.4
2019-01-18T21:40:21.112Z,15.4
2019-01-18T21:50:20.325Z,15.4
2019-01-18T22:00:19.530Z,15.4
2019-01-18T22:10:18.744Z,15.4
2019-01-18T22:20:17.952Z,15.4
2019-01-18T22:30:17.161Z,15.4
2019-01-18T22:40:16.369Z,15.5
2019-01-18T22:50:15.586Z,15.5
2019-01-18T23:00:14.787Z,15.5
2019-01-18T23:10:14.095Z,15.5
2019-01-18T23:20:13.204Z,15.6
2019-01-18T23:30:12.412Z,15.6
2019-01-18T23:40:11.621Z,15.6
2019-01-18T23:50:10.827Z,15.6
